Time;durP1;ratioP1;P1;durP2;ratioP2;P2;SDS_P1;SDS_P2;PMS_P1;PMS_P2;Temp;Humidity;BMP_temperature;BMP_pressure;BME280_temperature;BME280_humidity;BME280_pressure;Samples;Min_cycle;Max_cycle;Signal;HPM_P1;HPM_P2
2023/08/29 00:00:48;;;;;;;7.60;6.90;;;;;;;14.53;95.90;101123.34;5133998;27;20068;-65
2023/08/29 00:03:16;;;;;;;7.63;7.00;;;;;;;14.58;96.15;101137.22;5096176;28;20027;-66
2023/08/29 00:05:41;;;;;;;7.60;7.00;;;;;;;14.63;95.96;101137.72;5096332;28;20031;-66
2023/08/29 00:08:06;;;;;;;6.88;6.18;;;;;;;14.61;95.50;101136.13;5114128;28;20510;-66
2023/08/29 00:10:32;;;;;;;7.10;6.60;;;;;;;14.44;96.03;101129.31;5113598;28;20039;-66
2023/08/29 00:12:57;;;;;;;7.25;6.55;;;;;;;14.43;96.02;101135.66;5096390;28;20096;-66
2023/08/29 00:15:23;;;;;;;8.32;7.07;;;;;;;14.54;95.98;101131.25;5113933;28;20359;-65
2023/08/29 00:17:48;;;;;;;7.53;6.93;;;;;;;14.34;96.09;101125.63;5113957;28;20020;-65
2023/08/29 00:20:14;;;;;;;11.48;6.70;;;;;;;14.46;96.10;101124.72;5095106;28;20063;-65
2023/08/29 00:22:39;;;;;;;7.38;6.78;;;;;;;14.39;96.15;101124.34;5114928;27;20032;-65
2023/08/29 00:25:05;;;;;;;7.97;7.22;;;;;;;14.32;96.70;101112.34;5094049;28;20032;-65
2023/08/29 00:27:30;;;;;;;7.30;6.70;;;;;;;14.28;97.06;101117.09;5113487;28;20089;-65
2023/08/29 00:29:56;;;;;;;8.25;7.47;;;;;;;14.23;96.35;101110.38;5113514;28;20486;-66
2023/08/29 00:32:21;;;;;;;8.18;7.28;;;;;;;14.11;97.67;101104.13;5107890;27;20066;-65
2023/08/29 00:34:46;;;;;;;7.60;7.00;;;;;;;14.18;97.67;101107.22;5133686;27;20016;-66
2023/08/29 00:37:12;;;;;;;7.85;7.25;;;;;;;14.13;97.17;101115.56;5134290;27;20389;-65
2023/08/29 00:39:37;;;;;;;7.45;6.75;;;;;;;14.13;97.87;101112.88;5133076;27;20031;-65
2023/08/29 00:42:03;;;;;;;7.57;6.88;;;;;;;14.16;97.75;101109.13;5126275;27;20024;-66
2023/08/29 00:44:28;;;;;;;8.25;7.45;;;;;;;14.12;97.12;101111.19;5095097;28;20431;-65
2023/08/29 00:46:54;;;;;;;8.30;7.70;;;;;;;14.16;96.63;101111.81;5113391;28;20019;-65
2023/08/29 00:49:24;;;;;;;8.73;7.93;;;;;;;13.93;97.72;101103.66;5094462;28;20028;-66
2023/08/29 00:51:49;;;;;;;8.38;7.57;;;;;;;13.86;97.96;101102.41;5123395;27;20031;-65
2023/08/29 00:54:17;;;;;;;9.50;8.70;;;;;;;13.85;98.78;101111.38;5133877;27;20381;-65
2023/08/29 00:56:44;;;;;;;9.10;8.25;;;;;;;13.99;98.37;101113.88;5114328;27;20026;-66
2023/08/29 00:59:10;;;;;;;8.23;7.45;;;;;;;14.01;97.52;101108.44;5133607;27;20068;-65
2023/08/29 01:01:36;;;;;;;8.70;7.80;;;;;;;13.95;96.80;101093.69;5131741;27;20023;-66
2023/08/29 01:04:02;;;;;;;8.48;7.70;;;;;;;13.95;97.73;101100.88;5132400;27;20154;-66
2023/08/29 01:06:30;;;;;;;13.18;8.35;;;;;;;14.03;97.03;101110.03;5111156;28;20022;-65
2023/08/29 01:08:57;;;;;;;8.50;7.70;;;;;;;13.99;97.38;101099.66;5094667;28;20424;-65
2023/08/29 01:11:34;;;;;;;8.02;7.43;;;;;;;13.98;97.15;101106.00;5112553;27;20089;-65
2023/08/29 01:14:10;;;;;;;8.70;8.00;;;;;;;13.98;97.05;101090.81;5113493;27;20055;-65
2023/08/29 01:16:43;;;;;;;8.25;7.45;;;;;;;13.90;96.36;101098.53;5113968;27;20050;-64
2023/08/29 01:19:13;;;;;;;8.30;7.60;;;;;;;13.72;96.95;101083.81;5112844;28;20537;-65
2023/08/29 01:22:09;;;;;;;8.52;7.82;;;;;;;13.82;97.37;101104.44;5113562;27;20034;-65
2023/08/29 01:24:46;;;;;;;8.98;8.23;;;;;;;13.64;97.53;101101.25;5112531;28;20027;-65
2023/08/29 01:27:15;;;;;;;9.88;8.07;;;;;;;13.61;97.63;101101.47;5094727;28;20023;-65
2023/08/29 01:29:41;;;;;;;9.52;8.48;;;;;;;13.59;97.82;101099.91;5112571;28;20043;-65
2023/08/29 01:32:07;;;;;;;8.38;7.78;;;;;;;13.50;97.75;101109.44;5130010;27;20065;-65
2023/08/29 01:34:32;;;;;;;9.25;8.55;;;;;;;13.56;98.38;101105.44;5132746;27;20057;-65
2023/08/29 01:36:57;;;;;;;8.93;8.07;;;;;;;13.62;98.08;101099.69;5125695;27;20076;-64
2023/08/29 01:39:24;;;;;;;9.07;8.32;;;;;;;13.61;98.05;101095.28;5100445;28;20027;-65
2023/08/29 01:41:50;;;;;;;9.40;8.70;;;;;;;13.61;98.23;101103.31;5110730;27;20055;-65
2023/08/29 01:44:15;;;;;;;12.05;8.98;;;;;;;13.59;98.38;101094.56;5074222;28;20058;-65
2023/08/29 01:46:41;;;;;;;10.48;9.27;;;;;;;13.50;98.82;101105.88;5082937;28;20019;-66
2023/08/29 01:49:06;;;;;;;9.70;8.88;;;;;;;13.46;99.33;101109.75;5113102;27;20031;-65
2023/08/29 01:51:32;;;;;;;10.70;9.50;;;;;;;13.30;99.42;101091.28;5094337;28;20024;-65
2023/08/29 01:53:59;;;;;;;10.68;9.55;;;;;;;13.33;99.79;101107.94;5093814;28;20394;-65
2023/08/29 01:56:28;;;;;;;11.05;10.15;;;;;;;13.42;99.94;101114.47;5112192;28;20036;-65
2023/08/29 01:58:56;;;;;;;11.15;10.15;;;;;;;13.37;100.00;101105.91;5112164;28;20416;-65
2023/08/29 02:01:21;;;;;;;10.13;9.23;;;;;;;13.39;99.82;101110.19;5094749;28;20030;-65
2023/08/29 02:03:49;;;;;;;10.52;9.60;;;;;;;13.48;99.75;101116.69;5093950;28;20032;-64
2023/08/29 02:06:15;;;;;;;10.50;9.70;;;;;;;13.54;98.80;101118.94;5112351;28;20020;-65
2023/08/29 02:08:41;;;;;;;10.77;9.77;;;;;;;13.51;98.24;101113.81;5093789;28;20103;-64
2023/08/29 02:11:07;;;;;;;10.80;9.73;;;;;;;13.55;98.05;101123.31;5105778;28;20046;-64
2023/08/29 02:13:33;;;;;;;10.93;9.85;;;;;;;13.50;98.38;101120.13;5131537;28;20023;-64
2023/08/29 02:16:00;;;;;;;10.48;9.60;;;;;;;13.44;98.58;101114.34;5093805;28;20019;-65
2023/08/29 02:18:26;;;;;;;10.85;9.70;;;;;;;13.51;98.01;101115.63;5112242;28;20019;-65
2023/08/29 02:20:51;;;;;;;10.43;9.50;;;;;;;13.56;97.52;101121.47;5108258;28;20027;-65
2023/08/29 02:23:20;;;;;;;9.50;8.73;;;;;;;13.50;97.50;101130.81;5093795;28;20470;-65
2023/08/29 02:25:45;;;;;;;9.85;8.95;;;;;;;13.42;97.24;101138.50;5093875;28;20023;-65
2023/08/29 02:28:13;;;;;;;11.57;8.95;;;;;;;13.43;97.21;101131.34;5122126;28;20038;-65
2023/08/29 02:30:39;;;;;;;11.63;5.53;;;;;;;13.57;97.06;101136.56;5113972;28;20438;-64
2023/08/29 02:33:04;;;;;;;7.70;5.25;;;;;;;13.56;96.87;101135.72;5132588;28;20110;-65
2023/08/29 02:35:29;;;;;;;9.98;9.07;;;;;;;13.37;97.54;101141.50;5132040;28;20040;-65
2023/08/29 02:37:55;;;;;;;9.55;8.60;;;;;;;13.32;97.45;101137.44;5129686;28;20026;-65
2023/08/29 02:40:20;;;;;;;10.25;9.35;;;;;;;13.32;97.45;101151.63;5132322;28;20045;-65
2023/08/29 02:42:46;;;;;;;9.82;8.90;;;;;;;13.30;97.46;101142.91;5132504;28;20024;-65
2023/08/29 02:45:11;;;;;;;10.00;9.20;;;;;;;13.37;96.21;101156.66;5113992;28;20053;-65
2023/08/29 02:47:39;;;;;;;10.65;9.65;;;;;;;13.16;96.99;101167.00;5123877;28;20553;-64
2023/08/29 02:50:05;;;;;;;9.18;8.43;;;;;;;13.26;96.99;101161.91;5114425;28;20059;-65
2023/08/29 02:52:33;;;;;;;9.68;8.88;;;;;;;13.19;97.03;101169.47;5115631;28;20030;-65
2023/08/29 02:54:58;;;;;;;9.98;8.80;;;;;;;13.15;97.20;101149.28;5115460;27;20031;-65
2023/08/29 02:57:23;;;;;;;10.30;8.82;;;;;;;13.16;97.05;101150.97;5083548;27;20019;-65
2023/08/29 02:59:49;;;;;;;9.45;8.57;;;;;;;13.09;97.26;101139.88;5131370;27;20023;-65
2023/08/29 03:02:14;;;;;;;10.13;9.27;;;;;;;13.13;97.16;101148.50;5115613;28;20031;-64
2023/08/29 03:04:40;;;;;;;9.85;8.93;;;;;;;13.14;96.94;101147.53;5097710;28;20076;-65
2023/08/29 03:07:05;;;;;;;11.15;8.98;;;;;;;13.02;97.53;101151.91;5114515;27;20466;-65
2023/08/29 03:09:31;;;;;;;9.40;8.45;;;;;;;12.88;98.26;101158.22;5135701;27;20054;-64
2023/08/29 03:11:58;;;;;;;10.40;9.48;;;;;;;12.97;98.83;101154.06;5116169;27;20508;-65
2023/08/29 03:14:23;;;;;;;9.35;8.48;;;;;;;13.01;98.06;101157.38;5108957;28;20031;-64
2023/08/29 03:16:49;;;;;;;10.80;9.25;;;;;;;13.00;98.06;101155.66;5115767;27;20489;-65
2023/08/29 03:19:15;;;;;;;10.07;9.07;;;;;;;13.08;97.53;101153.31;5098198;27;20024;-64
2023/08/29 03:21:40;;;;;;;10.27;9.38;;;;;;;13.07;97.48;101152.47;5094476;28;20063;-65
2023/08/29 03:24:07;;;;;;;10.27;9.23;;;;;;;12.99;97.74;101154.78;5094692;28;20035;-64
2023/08/29 03:26:32;;;;;;;10.85;9.45;;;;;;;12.96;97.70;101155.00;5083145;27;20022;-64
2023/08/29 03:28:58;;;;;;;9.18;8.45;;;;;;;13.03;96.86;101150.97;5134682;27;20031;-65
2023/08/29 03:31:23;;;;;;;10.13;9.07;;;;;;;12.95;97.67;101153.31;5116897;27;20023;-64
2023/08/29 03:33:49;;;;;;;9.88;8.93;;;;;;;12.85;98.05;101141.53;5135616;27;20053;-64
2023/08/29 03:36:14;;;;;;;9.93;9.13;;;;;;;12.92;97.99;101146.34;5134894;27;20047;-65
2023/08/29 03:38:42;;;;;;;9.85;8.93;;;;;;;12.79;98.65;101136.59;5115205;27;20443;-65
2023/08/29 03:41:07;;;;;;;11.13;9.90;;;;;;;12.89;98.16;101138.56;5116569;27;20380;-64
2023/08/29 03:43:34;;;;;;;9.82;8.98;;;;;;;12.93;98.05;101147.19;5116935;27;20034;-64
2023/08/29 03:46:01;;;;;;;9.95;9.15;;;;;;;12.91;97.72;101139.31;5114897;27;20020;-65
2023/08/29 03:48:27;;;;;;;10.45;9.48;;;;;;;12.71;98.14;101127.31;5114814;28;20024;-65
2023/08/29 03:50:54;;;;;;;10.15;9.20;;;;;;;12.71;98.51;101124.66;5095681;28;20043;-64
2023/08/29 03:53:20;;;;;;;10.40;9.43;;;;;;;12.81;98.38;101111.53;5096774;28;20042;-64
2023/08/29 03:55:48;;;;;;;9.85;9.05;;;;;;;12.71;98.75;101105.13;5114496;28;20020;-65
2023/08/29 03:58:14;;;;;;;10.18;9.27;;;;;;;12.77;98.73;101101.19;5115615;27;20047;-65
2023/08/29 04:00:39;;;;;;;10.60;9.70;;;;;;;12.72;98.52;101098.81;5116037;27;20359;-64
2023/08/29 04:03:07;;;;;;;9.73;8.93;;;;;;;12.71;98.06;101110.47;5134086;27;20038;-65
2023/08/29 04:05:35;;;;;;;10.48;9.23;;;;;;;12.62;98.24;101109.25;5082101;28;20088;-65
2023/08/29 04:08:01;;;;;;;12.55;9.88;;;;;;;12.60;98.38;101116.50;5095929;28;20135;-65
2023/08/29 04:10:29;;;;;;;14.27;9.43;;;;;;;12.61;98.21;101112.88;5095612;28;20559;-64
2023/08/29 04:12:54;;;;;;;10.10;9.30;;;;;;;12.47;98.14;101103.16;5115302;27;20028;-64
2023/08/29 04:15:23;;;;;;;10.18;9.25;;;;;;;12.53;98.46;101093.88;5095603;28;20026;-65
2023/08/29 04:17:49;;;;;;;6.03;5.40;;;;;;;12.80;97.28;101100.97;5114219;28;20043;-64
2023/08/29 04:20:16;;;;;;;10.82;9.73;;;;;;;12.61;97.62;101099.53;5095466;27;20058;-65
2023/08/29 04:22:43;;;;;;;11.20;10.23;;;;;;;12.61;97.79;101102.19;5096676;28;20069;-65
2023/08/29 04:25:09;;;;;;;11.57;10.38;;;;;;;12.62;97.70;101101.25;5113752;28;20091;-64
2023/08/29 04:27:35;;;;;;;11.15;10.15;;;;;;;12.58;98.11;101101.56;5095626;28;20028;-64
2023/08/29 04:30:01;;;;;;;11.35;9.27;;;;;;;12.55;98.14;101093.75;5095507;28;20453;-65
2023/08/29 04:32:26;;;;;;;11.18;10.18;;;;;;;12.48;97.86;101094.16;5114832;27;20101;-65
2023/08/29 04:34:52;;;;;;;11.02;9.10;;;;;;;12.53;97.54;101091.22;5094894;28;20026;-65
2023/08/29 04:37:17;;;;;;;10.93;9.93;;;;;;;12.45;97.35;101085.53;5114172;27;20023;-65
2023/08/29 04:39:42;;;;;;;10.07;9.18;;;;;;;12.46;97.15;101088.06;5113669;28;20031;-65
2023/08/29 04:42:08;;;;;;;10.23;9.02;;;;;;;12.33;97.67;101084.53;5102487;27;20435;-64
2023/08/29 04:44:34;;;;;;;11.15;10.23;;;;;;;12.43;97.63;101090.09;5134138;27;20019;-65
2023/08/29 04:46:59;;;;;;;6.03;5.43;;;;;;;12.63;97.16;101078.94;5115650;27;20027;-64
2023/08/29 04:49:25;;;;;;;12.10;10.63;;;;;;;12.25;98.05;101074.38;5133236;27;20536;-64
2023/08/29 04:51:50;;;;;;;11.15;9.45;;;;;;;12.39;98.30;101077.94;5132162;27;20023;-65
2023/08/29 04:54:16;;;;;;;11.20;10.10;;;;;;;12.37;98.14;101079.84;5132975;27;20030;-65
2023/08/29 04:56:41;;;;;;;11.85;10.75;;;;;;;12.41;98.61;101090.22;5115589;27;20042;-65
2023/08/29 04:59:07;;;;;;;10.88;9.45;;;;;;;12.43;98.27;101090.94;5115356;27;20030;-65
2023/08/29 05:01:32;;;;;;;11.20;10.30;;;;;;;12.38;98.76;101086.88;5128814;27;20033;-65
2023/08/29 05:03:57;;;;;;;11.27;10.20;;;;;;;12.29;99.02;101083.00;5112952;28;20067;-65
2023/08/29 05:06:25;;;;;;;10.88;9.63;;;;;;;12.41;99.08;101092.88;5112403;28;20024;-65
2023/08/29 05:08:52;;;;;;;11.93;10.45;;;;;;;12.35;99.40;101081.75;5113213;28;20466;-65
2023/08/29 05:11:20;;;;;;;11.27;10.25;;;;;;;12.45;99.52;101085.53;5112517;28;20534;-65
2023/08/29 05:13:48;;;;;;;6.88;5.18;;;;;;;12.67;98.86;101090.25;5114107;27;20035;-65
2023/08/29 05:16:13;;;;;;;11.52;10.52;;;;;;;12.50;99.62;101088.75;5094413;28;20027;-65
2023/08/29 05:18:38;;;;;;;11.52;10.25;;;;;;;12.55;99.62;101091.09;5120489;27;20041;-65
2023/08/29 05:21:04;;;;;;;12.27;11.07;;;;;;;12.62;99.35;101084.41;5113977;27;20095;-64
2023/08/29 05:23:29;;;;;;;11.68;10.68;;;;;;;12.62;99.59;101081.72;5131455;27;20031;-65
2023/08/29 05:25:55;;;;;;;11.75;10.65;;;;;;;12.61;100.00;101088.84;5114725;27;20435;-65
2023/08/29 05:28:20;;;;;;;12.63;10.93;;;;;;;12.59;100.00;101079.25;5113166;27;20469;-65
2023/08/29 05:30:45;;;;;;;12.32;11.23;;;;;;;12.63;100.00;101073.59;5114380;27;20019;-64
2023/08/29 05:33:12;;;;;;;8.70;6.20;;;;;;;12.89;100.00;101093.19;5112853;27;20050;-65
2023/08/29 05:35:37;;;;;;;8.30;5.97;;;;;;;12.97;100.00;101095.31;5121768;27;20024;-65
2023/08/29 05:38:03;;;;;;;12.93;10.45;;;;;;;12.76;100.00;101083.44;5112669;28;20023;-65
2023/08/29 05:40:28;;;;;;;12.73;11.63;;;;;;;12.83;100.00;101084.75;5112444;28;20030;-65
2023/08/29 05:42:53;;;;;;;11.90;10.68;;;;;;;12.85;100.00;101090.81;5112454;28;20168;-65
2023/08/29 05:45:19;;;;;;;12.52;11.32;;;;;;;12.86;100.00;101089.88;5112696;27;20032;-65
2023/08/29 05:47:44;;;;;;;13.35;12.23;;;;;;;12.85;100.00;101085.47;5094300;28;20374;-64
2023/08/29 05:50:10;;;;;;;15.57;11.57;;;;;;;12.90;100.00;101091.34;5093478;28;20098;-65
2023/08/29 05:52:35;;;;;;;13.32;12.02;;;;;;;12.96;100.00;101086.44;5112354;28;20383;-65
2023/08/29 05:55:00;;;;;;;12.23;11.05;;;;;;;12.99;100.00;101096.06;5112199;28;20039;-66
2023/08/29 05:57:26;;;;;;;12.70;11.70;;;;;;;12.99;100.00;101097.88;5113368;28;20085;-65
2023/08/29 05:59:53;;;;;;;12.73;11.43;;;;;;;13.05;100.00;101097.44;5111755;28;20031;-65
2023/08/29 06:02:19;;;;;;;13.10;11.90;;;;;;;13.09;100.00;101104.31;5112825;28;20019;-65
2023/08/29 06:04:44;;;;;;;13.32;12.13;;;;;;;13.09;100.00;101097.13;5111763;28;20466;-65
2023/08/29 06:07:10;;;;;;;9.38;6.82;;;;;;;13.31;100.00;101101.00;5113292;28;20077;-65
2023/08/29 06:09:35;;;;;;;12.90;11.77;;;;;;;13.16;100.00;101093.06;5111865;28;20034;-65
2023/08/29 06:12:00;;;;;;;13.35;12.02;;;;;;;13.24;100.00;101091.69;5093640;28;20039;-65
2023/08/29 06:14:26;;;;;;;13.82;12.63;;;;;;;13.27;100.00;101094.19;5092077;28;20099;-66
2023/08/29 06:16:52;;;;;;;13.05;11.85;;;;;;;13.35;100.00;101089.13;5112513;28;20432;-65
2023/08/29 06:19:17;;;;;;;14.38;13.02;;;;;;;13.42;100.00;101092.25;5112528;28;20032;-65
2023/08/29 06:21:43;;;;;;;14.45;13.15;;;;;;;13.46;100.00;101091.88;5111888;28;20458;-65
2023/08/29 06:24:08;;;;;;;15.57;14.07;;;;;;;13.56;100.00;101082.28;5106495;28;20035;-64
2023/08/29 06:26:34;;;;;;;16.02;14.38;;;;;;;13.57;100.00;101091.97;5105278;28;20043;-65
2023/08/29 06:28:59;;;;;;;15.82;14.15;;;;;;;13.59;100.00;101083.88;5124023;27;20030;-65
2023/08/29 06:31:25;;;;;;;16.17;13.88;;;;;;;13.66;100.00;101085.13;5113755;28;20023;-64
2023/08/29 06:33:50;;;;;;;15.90;14.40;;;;;;;13.72;100.00;101084.69;5115861;28;20034;-64
2023/08/29 06:36:16;;;;;;;16.20;14.65;;;;;;;13.77;100.00;101090.56;5118533;27;20015;-65
2023/08/29 06:38:42;;;;;;;16.17;14.63;;;;;;;13.84;100.00;101082.94;5116568;27;20034;-64
2023/08/29 06:41:08;;;;;;;15.38;13.82;;;;;;;13.95;100.00;101088.34;5125810;27;20059;-65
2023/08/29 06:43:33;;;;;;;20.60;15.13;;;;;;;14.01;100.00;101084.38;5110820;28;20055;-64
2023/08/29 06:45:59;;;;;;;15.88;14.25;;;;;;;14.13;100.00;101085.28;5117604;27;20033;-65
2023/08/29 06:48:24;;;;;;;15.48;13.90;;;;;;;14.18;100.00;101089.34;5116455;27;20027;-65
2023/08/29 06:50:50;;;;;;;15.43;13.93;;;;;;;14.30;100.00;101093.75;5135449;27;20027;-65
2023/08/29 06:53:15;;;;;;;15.15;13.63;;;;;;;14.38;100.00;101090.50;5116964;27;20034;-65
2023/08/29 06:55:41;;;;;;;16.52;14.70;;;;;;;14.45;100.00;101096.25;5122555;27;20024;-65
2023/08/29 06:58:06;;;;;;;14.98;13.52;;;;;;;14.54;100.00;101095.59;5104012;27;20039;-65
2023/08/29 07:00:32;;;;;;;16.65;14.40;;;;;;;14.57;100.00;101087.31;5118840;27;20478;-65
2023/08/29 07:02:58;;;;;;;15.20;13.65;;;;;;;14.57;100.00;101086.47;5105034;28;20063;-65
2023/08/29 07:05:26;;;;;;;14.70;13.23;;;;;;;14.64;100.00;101093.91;5089386;28;20030;-64
2023/08/29 07:07:52;;;;;;;14.07;12.68;;;;;;;14.73;100.00;101089.69;5091582;28;20031;-65
2023/08/29 07:10:18;;;;;;;16.10;14.60;;;;;;;14.68;100.00;101092.72;5098178;28;20038;-64
2023/08/29 07:12:43;;;;;;;15.10;13.55;;;;;;;14.73;100.00;101103.91;5115204;28;20027;-64
2023/08/29 07:15:09;;;;;;;15.07;13.45;;;;;;;14.71;100.00;101086.28;5090979;28;20076;-65
2023/08/29 07:17:35;;;;;;;14.05;12.75;;;;;;;14.89;100.00;101103.59;5113314;28;20104;-65
2023/08/29 07:20:08;;;;;;;14.75;13.40;;;;;;;14.93;100.00;101099.72;5101092;28;20023;-66
2023/08/29 07:22:34;;;;;;;15.10;13.70;;;;;;;15.01;100.00;101099.13;5104787;28;20169;-65
2023/08/29 07:25:00;;;;;;;14.52;13.02;;;;;;;15.01;100.00;101098.28;5096475;28;20047;-65
2023/08/29 07:27:25;;;;;;;14.07;12.88;;;;;;;15.09;100.00;101101.19;5115193;27;20123;-66
2023/08/29 07:29:50;;;;;;;14.02;12.32;;;;;;;15.10;100.00;101103.75;5115848;27;20023;-65
2023/08/29 07:32:16;;;;;;;13.23;12.02;;;;;;;15.10;100.00;101103.75;5101337;27;20489;-65
2023/08/29 07:34:41;;;;;;;12.30;11.13;;;;;;;15.21;100.00;101095.75;5099516;27;20027;-66
2023/08/29 07:37:07;;;;;;;13.32;12.05;;;;;;;15.28;100.00;101100.63;5134119;27;20473;-66
2023/08/29 07:39:32;;;;;;;14.27;12.90;;;;;;;15.38;100.00;101101.56;5135212;27;20023;-66
2023/08/29 07:41:58;;;;;;;13.20;11.02;;;;;;;15.37;100.00;101114.13;5134917;27;20041;-65
2023/08/29 07:44:23;;;;;;;12.57;11.48;;;;;;;15.54;100.00;101107.44;5134934;27;20468;-65
2023/08/29 07:46:49;;;;;;;13.00;11.60;;;;;;;15.64;100.00;101110.22;5097298;28;20035;-66
2023/08/29 07:49:14;;;;;;;13.32;11.95;;;;;;;15.63;100.00;101105.84;5114233;28;20073;-65
2023/08/29 07:51:40;;;;;;;12.48;11.25;;;;;;;15.80;100.00;101110.75;5114707;28;20103;-65
2023/08/29 07:54:06;;;;;;;12.52;11.18;;;;;;;15.77;100.00;101113.69;5115546;27;20114;-64
2023/08/29 07:56:33;;;;;;;10.52;9.63;;;;;;;15.84;100.00;101109.50;5134616;27;20035;-65
2023/08/29 07:58:58;;;;;;;11.38;8.82;;;;;;;15.89;98.23;101106.47;5135058;27;20023;-65
2023/08/29 08:01:24;;;;;;;11.45;10.35;;;;;;;15.94;99.82;101098.88;5116039;27;20015;-66
2023/08/29 08:03:49;;;;;;;10.18;9.18;;;;;;;15.98;99.19;101097.66;5134742;27;20037;-65
2023/08/29 08:06:15;;;;;;;11.70;10.10;;;;;;;16.01;99.33;101100.09;5131813;27;20454;-65
2023/08/29 08:08:40;;;;;;;11.50;10.50;;;;;;;16.05;99.86;101100.69;5134326;27;20034;-66
2023/08/29 08:11:06;;;;;;;10.82;9.73;;;;;;;16.15;99.51;101100.78;5115632;27;20125;-66
2023/08/29 08:13:34;;;;;;;11.85;10.27;;;;;;;16.26;99.70;101106.94;5133679;27;20496;-66
2023/08/29 08:15:59;;;;;;;11.10;10.20;;;;;;;16.27;99.89;101092.56;5132907;27;20037;-66
2023/08/29 08:18:25;;;;;;;11.68;10.48;;;;;;;16.44;100.00;101095.66;5134263;27;20389;-66
2023/08/29 08:20:50;;;;;;;11.52;10.48;;;;;;;16.47;99.05;101106.16;5115407;27;20095;-66
2023/08/29 08:23:18;;;;;;;11.38;10.27;;;;;;;16.54;99.08;101089.41;5134357;27;20019;-65
2023/08/29 08:25:44;;;;;;;10.93;9.93;;;;;;;16.74;99.63;101109.22;5132359;27;20019;-66
2023/08/29 08:28:10;;;;;;;9.52;8.60;;;;;;;16.85;97.14;101102.94;5134392;27;20023;-66
2023/08/29 08:30:37;;;;;;;9.35;8.43;;;;;;;16.83;96.21;101104.91;5134014;27;20068;-65
2023/08/29 08:33:04;;;;;;;9.13;8.32;;;;;;;16.87;96.81;101089.38;5116115;27;20047;-65
2023/08/29 08:35:29;;;;;;;8.50;7.70;;;;;;;17.07;95.26;101104.66;5115731;27;20522;-66
2023/08/29 08:37:57;;;;;;;7.72;7.03;;;;;;;17.13;94.43;101101.41;5113445;27;20118;-66
2023/08/29 08:40:22;;;;;;;8.05;7.28;;;;;;;17.31;94.54;101112.41;5094716;28;20023;-66
2023/08/29 08:42:48;;;;;;;6.70;6.15;;;;;;;17.37;92.09;101114.56;5113526;28;20546;-66
2023/08/29 08:45:14;;;;;;;6.68;4.93;;;;;;;17.35;87.63;101111.13;5095885;28;20035;-66
2023/08/29 08:47:40;;;;;;;6.85;4.90;;;;;;;17.32;87.94;101111.41;5094333;28;20378;-66
2023/08/29 08:50:09;;;;;;;5.97;5.30;;;;;;;17.29;89.37;101110.84;5112806;28;20129;-65
2023/08/29 08:52:35;;;;;;;6.60;5.28;;;;;;;17.35;86.87;101107.59;5113263;28;20022;-65
2023/08/29 08:55:01;;;;;;;8.23;6.07;;;;;;;17.32;87.25;101108.72;5113932;27;20058;-65
2023/08/29 08:57:27;;;;;;;5.95;5.25;;;;;;;17.37;88.28;101108.34;5113080;28;20035;-65
2023/08/29 08:59:53;;;;;;;6.82;5.20;;;;;;;17.49;88.14;101105.41;5112677;28;20156;-66
2023/08/29 09:02:19;;;;;;;4.82;4.32;;;;;;;17.44;88.37;101096.91;5112857;28;20023;-66
2023/08/29 09:04:45;;;;;;;5.55;4.15;;;;;;;17.42;85.18;101106.94;5077476;28;20019;-66
2023/08/29 09:07:10;;;;;;;6.28;4.07;;;;;;;17.37;84.93;101102.94;5113967;27;20394;-65
2023/08/29 09:09:38;;;;;;;6.10;3.90;;;;;;;17.43;84.31;101105.94;5112549;28;20205;-66
2023/08/29 09:12:06;;;;;;;4.88;4.35;;;;;;;17.52;84.29;101108.81;5112727;28;20047;-66
2023/08/29 09:14:32;;;;;;;7.20;5.15;;;;;;;17.54;84.58;101096.94;5114438;27;20046;-65
2023/08/29 09:16:59;;;;;;;7.93;5.20;;;;;;;17.68;84.67;101109.19;5114816;27;20015;-66
2023/08/29 09:19:29;;;;;;;5.75;5.10;;;;;;;17.80;83.37;101112.66;5114370;27;20031;-66
2023/08/29 09:21:55;;;;;;;7.50;5.38;;;;;;;17.92;83.15;101114.22;5133381;27;20461;-66
2023/08/29 09:24:34;;;;;;;6.22;5.38;;;;;;;17.91;83.58;101109.81;5132876;27;20035;-65
2023/08/29 09:27:04;;;;;;;5.82;5.10;;;;;;;17.92;82.75;101120.47;5131229;27;20030;-65
2023/08/29 09:29:33;;;;;;;5.10;4.60;;;;;;;18.07;83.04;101104.75;5133010;27;20027;-65
2023/08/29 09:31:59;;;;;;;5.47;3.70;;;;;;;18.08;80.44;101121.75;5114990;27;20042;-65
2023/08/29 09:34:30;;;;;;;4.43;3.55;;;;;;;18.15;80.34;101117.53;5130671;27;20028;-66
2023/08/29 09:37:02;;;;;;;4.38;3.97;;;;;;;18.12;80.62;101120.50;5112538;28;20032;-65
2023/08/29 09:39:28;;;;;;;5.25;4.03;;;;;;;18.06;80.04;101123.72;5093710;28;20024;-65
2023/08/29 09:42:12;;;;;;;6.55;3.80;;;;;;;18.10;81.27;101119.78;5094174;28;20163;-65
2023/08/29 09:44:39;;;;;;;6.30;4.28;;;;;;;17.92;80.82;101116.94;5112246;28;20068;-65
2023/08/29 09:47:06;;;;;;;5.60;3.92;;;;;;;17.98;83.69;101110.13;5113326;27;20103;-65
2023/08/29 09:49:52;;;;;;;4.90;4.32;;;;;;;18.07;85.86;101106.63;5111760;28;20042;-66
2023/08/29 09:52:21;;;;;;;5.10;3.58;;;;;;;17.87;84.22;101108.41;5093358;28;20027;-65
2023/08/29 09:54:51;;;;;;;6.95;4.07;;;;;;;17.91;86.13;101096.38;5120852;28;20114;-65
2023/08/29 09:57:24;;;;;;;6.47;3.20;;;;;;;17.80;81.58;101100.03;5132242;27;20033;-65
2023/08/29 09:59:56;;;;;;;8.38;3.88;;;;;;;17.87;82.27;101101.19;5132559;27;20420;-66
2023/08/29 10:02:25;;;;;;;3.38;3.08;;;;;;;17.91;83.52;101099.06;5132110;27;20046;-65
2023/08/29 10:04:55;;;;;;;3.88;2.85;;;;;;;18.12;83.28;101099.81;5130318;28;20028;-65
2023/08/29 10:07:33;;;;;;;3.60;3.30;;;;;;;18.11;84.71;101095.41;5132151;28;20033;-65
2023/08/29 10:09:59;;;;;;;5.68;4.03;;;;;;;18.10;81.45;101101.78;5132342;28;20027;-65
2023/08/29 10:12:27;;;;;;;4.75;4.40;;;;;;;18.25;81.63;101096.84;5113945;28;20027;-65
2023/08/29 10:14:54;;;;;;;4.13;3.78;;;;;;;18.37;78.84;101098.41;5121170;28;20020;-66
2023/08/29 10:17:20;;;;;;;5.72;4.20;;;;;;;18.22;78.51;101093.59;5131828;28;20023;-65
2023/08/29 10:19:47;;;;;;;3.85;3.17;;;;;;;18.37;77.93;101101.09;5096222;28;20023;-65
2023/08/29 10:22:14;;;;;;;5.55;2.88;;;;;;;18.37;78.12;101098.41;5114283;28;20038;-65
2023/08/29 10:24:44;;;;;;;4.40;3.33;;;;;;;18.46;76.13;101098.56;5126186;28;20019;-65
2023/08/29 10:27:10;;;;;;;5.22;3.30;;;;;;;18.47;74.48;101092.16;5111921;28;20390;-66
2023/08/29 10:29:37;;;;;;;3.63;3.00;;;;;;;18.48;74.88;101091.19;5093496;28;20085;-66
2023/08/29 10:32:04;;;;;;;3.35;2.55;;;;;;;18.55;75.92;101092.31;5111903;28;20016;-65
2023/08/29 10:34:30;;;;;;;4.55;2.83;;;;;;;18.49;76.17;101082.13;5111904;28;20100;-66
2023/08/29 10:36:56;;;;;;;3.35;2.50;;;;;;;18.51;74.42;101077.44;5111870;28;20035;-66
2023/08/29 10:39:25;;;;;;;3.60;2.72;;;;;;;18.56;74.85;101084.09;5111658;28;20058;-66
2023/08/29 10:41:54;;;;;;;2.83;2.40;;;;;;;18.62;76.75;101080.00;5111826;28;20065;-65
2023/08/29 10:44:28;;;;;;;3.25;2.35;;;;;;;18.51;74.73;101086.38;5116494;28;20276;-65
2023/08/29 10:47:12;;;;;;;3.10;2.50;;;;;;;18.63;75.12;101087.06;5110408;28;20027;-66
2023/08/29 10:49:44;;;;;;;2.75;2.55;;;;;;;18.70;73.94;101076.56;5085980;28;20501;-66
2023/08/29 10:52:10;;;;;;;4.90;3.00;;;;;;;18.93;74.18;101079.81;5104401;28;20019;-66
2023/08/29 10:54:36;;;;;;;4.10;2.90;;;;;;;18.93;74.08;101077.97;5106069;28;20081;-66
2023/08/29 10:57:21;;;;;;;4.85;3.30;;;;;;;18.95;72.75;101076.00;5106353;28;20084;-66
2023/08/29 10:59:47;;;;;;;4.20;2.58;;;;;;;19.20;73.56;101070.94;5111074;28;20189;-66
2023/08/29 11:02:30;;;;;;;3.70;2.78;;;;;;;19.40;71.80;101063.63;5076712;28;20063;-66
2023/08/29 11:05:04;;;;;;;3.28;2.50;;;;;;;19.60;71.17;101069.78;5122624;28;20026;-66
2023/08/29 11:07:31;;;;;;;3.90;2.65;;;;;;;19.88;71.03;101063.41;5131998;28;20027;-66
2023/08/29 11:10:12;;;;;;;3.70;3.00;;;;;;;20.34;71.02;101060.63;5132314;27;20022;-65
2023/08/29 11:13:07;;;;;;;3.42;2.10;;;;;;;20.92;69.99;101061.97;5131772;27;20137;-65
2023/08/29 11:15:47;;;;;;;4.03;3.15;;;;;;;20.80;65.89;101066.78;5094707;28;20438;-66